sensor_id;sensor_type;location;lat;lon;timestamp;pressure;altitude;pressure_sealevel;temperature;humidity
56689;BME280;42565;53.342;-1.534;2023-11-21T00:01:15;99006.14;;;9.37;78.64
56689;BME280;42565;53.342;-1.534;2023-11-21T00:03:42;99012.06;;;9.68;78.11
56689;BME280;42565;53.342;-1.534;2023-11-21T00:06:09;99017.80;;;9.59;78.81
56689;BME280;42565;53.342;-1.534;2023-11-21T00:08:37;99022.45;;;9.55;77.44
56689;BME280;42565;53.342;-1.534;2023-11-21T00:11:05;99025.45;;;9.93;76.70
56689;BME280;42565;53.342;-1.534;2023-11-21T00:13:32;99026.15;;;9.89;75.86
56689;BME280;42565;53.342;-1.534;2023-11-21T00:16:00;99035.02;;;9.81;77.42
56689;BME280;42565;53.342;-1.534;2023-11-21T00:18:27;99039.41;;;9.92;76.27
56689;BME280;42565;53.342;-1.534;2023-11-21T00:20:55;99048.33;;;9.96;75.62
56689;BME280;42565;53.342;-1.534;2023-11-21T00:23:21;99052.56;;;10.09;75.23
56689;BME280;42565;53.342;-1.534;2023-11-21T00:25:48;99055.37;;;9.77;75.75
56689;BME280;42565;53.342;-1.534;2023-11-21T00:28:15;99063.65;;;9.69;76.40
56689;BME280;42565;53.342;-1.534;2023-11-21T00:30:42;99067.53;;;9.90;76.18
56689;BME280;42565;53.342;-1.534;2023-11-21T00:33:10;99060.11;;;10.21;75.10
56689;BME280;42565;53.342;-1.534;2023-11-21T00:35:37;99068.90;;;9.74;76.15
56689;BME280;42565;53.342;-1.534;2023-11-21T00:38:04;99076.33;;;9.25;76.67
56689;BME280;42565;53.342;-1.534;2023-11-21T00:40:31;99082.33;;;10.11;75.06
56689;BME280;42565;53.342;-1.534;2023-11-21T00:42:58;99071.17;;;10.15;75.08
56689;BME280;42565;53.342;-1.534;2023-11-21T00:45:25;99065.14;;;8.96;77.26
56689;BME280;42565;53.342;-1.534;2023-11-21T00:47:52;99070.50;;;9.26;77.19
56689;BME280;42565;53.342;-1.534;2023-11-21T00:50:19;99068.81;;;9.15;78.65
56689;BME280;42565;53.342;-1.534;2023-11-21T00:52:47;99071.11;;;9.36;77.09
56689;BME280;42565;53.342;-1.534;2023-11-21T00:55:14;99079.75;;;9.32;76.85
56689;BME280;42565;53.342;-1.534;2023-11-21T00:57:41;99084.45;;;9.42;75.64
56689;BME280;42565;53.342;-1.534;2023-11-21T01:00:09;99080.31;;;9.16;77.36
56689;BME280;42565;53.342;-1.534;2023-11-21T01:02:36;99081.67;;;9.66;75.55
56689;BME280;42565;53.342;-1.534;2023-11-21T01:05:04;99090.59;;;9.51;75.49
56689;BME280;42565;53.342;-1.534;2023-11-21T01:07:31;99094.19;;;9.46;74.54
56689;BME280;42565;53.342;-1.534;2023-11-21T01:09:58;99103.10;;;9.91;73.71
56689;BME280;42565;53.342;-1.534;2023-11-21T01:12:24;99103.71;;;9.92;72.53
56689;BME280;42565;53.342;-1.534;2023-11-21T01:14:51;99107.50;;;8.93;74.68
56689;BME280;42565;53.342;-1.534;2023-11-21T01:17:19;99124.14;;;9.38;75.10
56689;BME280;42565;53.342;-1.534;2023-11-21T01:19:46;99124.19;;;8.96;74.84
56689;BME280;42565;53.342;-1.534;2023-11-21T01:22:13;99123.66;;;9.19;75.79
56689;BME280;42565;53.342;-1.534;2023-11-21T01:24:41;99128.78;;;9.55;73.76
56689;BME280;42565;53.342;-1.534;2023-11-21T01:27:08;99124.13;;;9.42;74.62
56689;BME280;42565;53.342;-1.534;2023-11-21T01:29:35;99126.15;;;9.65;73.17
56689;BME280;42565;53.342;-1.534;2023-11-21T01:32:02;99125.71;;;9.44;72.73
56689;BME280;42565;53.342;-1.534;2023-11-21T01:34:30;99129.13;;;9.53;72.27
56689;BME280;42565;53.342;-1.534;2023-11-21T01:36:56;99131.51;;;10.01;71.07
56689;BME280;42565;53.342;-1.534;2023-11-21T01:39:23;99133.63;;;9.81;72.37
56689;BME280;42565;53.342;-1.534;2023-11-21T01:41:50;99135.74;;;10.02;70.85
56689;BME280;42565;53.342;-1.534;2023-11-21T01:44:17;99138.75;;;9.97;70.41
56689;BME280;42565;53.342;-1.534;2023-11-21T01:46:45;99144.67;;;9.62;70.32
56689;BME280;42565;53.342;-1.534;2023-11-21T01:49:13;99149.99;;;9.76;71.44
56689;BME280;42565;53.342;-1.534;2023-11-21T01:51:41;99155.49;;;10.04;70.87
56689;BME280;42565;53.342;-1.534;2023-11-21T01:54:09;99158.35;;;9.72;72.02
56689;BME280;42565;53.342;-1.534;2023-11-21T01:56:37;99162.43;;;9.31;71.73
56689;BME280;42565;53.342;-1.534;2023-11-21T01:59:05;99156.57;;;8.90;72.86
56689;BME280;42565;53.342;-1.534;2023-11-21T02:01:32;99161.65;;;8.57;74.35
56689;BME280;42565;53.342;-1.534;2023-11-21T02:03:59;99173.86;;;9.32;72.25
56689;BME280;42565;53.342;-1.534;2023-11-21T02:06:26;99176.70;;;9.24;70.78
56689;BME280;42565;53.342;-1.534;2023-11-21T02:08:54;99181.61;;;9.38;71.19
56689;BME280;42565;53.342;-1.534;2023-11-21T02:11:20;99184.73;;;9.20;71.56
56689;BME280;42565;53.342;-1.534;2023-11-21T02:13:47;99178.01;;;8.92;71.83
56689;BME280;42565;53.342;-1.534;2023-11-21T02:16:14;99177.55;;;8.84;72.92
56689;BME280;42565;53.342;-1.534;2023-11-21T02:18:42;99175.96;;;8.76;73.76
56689;BME280;42565;53.342;-1.534;2023-11-21T02:21:09;99174.74;;;9.18;72.54
56689;BME280;42565;53.342;-1.534;2023-11-21T02:23:36;99177.95;;;8.65;72.86
56689;BME280;42565;53.342;-1.534;2023-11-21T02:26:02;99189.06;;;9.43;71.18
56689;BME280;42565;53.342;-1.534;2023-11-21T02:28:29;99192.35;;;9.44;70.31
56689;BME280;42565;53.342;-1.534;2023-11-21T02:30:56;99187.56;;;9.33;71.29
56689;BME280;42565;53.342;-1.534;2023-11-21T02:33:23;99185.76;;;9.26;71.20
56689;BME280;42565;53.342;-1.534;2023-11-21T02:35:51;99176.26;;;9.05;72.14
56689;BME280;42565;53.342;-1.534;2023-11-21T02:38:17;99174.69;;;8.70;72.83
56689;BME280;42565;53.342;-1.534;2023-11-21T02:40:44;99179.13;;;8.58;72.00
56689;BME280;42565;53.342;-1.534;2023-11-21T02:43:11;99175.55;;;8.92;72.32
56689;BME280;42565;53.342;-1.534;2023-11-21T02:45:38;99178.31;;;9.49;71.18
56689;BME280;42565;53.342;-1.534;2023-11-21T02:48:05;99183.83;;;8.97;70.54
56689;BME280;42565;53.342;-1.534;2023-11-21T02:50:32;99193.74;;;8.90;72.49
56689;BME280;42565;53.342;-1.534;2023-11-21T02:52:59;99188.44;;;8.79;72.83
56689;BME280;42565;53.342;-1.534;2023-11-21T02:55:26;99189.43;;;9.68;70.99
56689;BME280;42565;53.342;-1.534;2023-11-21T02:57:54;99194.71;;;9.51;70.76
56689;BME280;42565;53.342;-1.534;2023-11-21T03:00:21;99196.35;;;9.29;69.53
56689;BME280;42565;53.342;-1.534;2023-11-21T03:02:48;99199.10;;;9.14;69.82
56689;BME280;42565;53.342;-1.534;2023-11-21T03:05:14;99207.68;;;9.66;69.09
56689;BME280;42565;53.342;-1.534;2023-11-21T03:07:42;99211.31;;;9.68;68.65
56689;BME280;42565;53.342;-1.534;2023-11-21T03:10:09;99208.27;;;9.93;67.17
56689;BME280;42565;53.342;-1.534;2023-11-21T03:12:36;99215.41;;;9.95;68.06
56689;BME280;42565;53.342;-1.534;2023-11-21T03:15:05;99211.44;;;9.33;69.08
56689;BME280;42565;53.342;-1.534;2023-11-21T03:17:32;99211.02;;;9.96;69.65
56689;BME280;42565;53.342;-1.534;2023-11-21T03:20:00;99199.12;;;10.03;68.76
56689;BME280;42565;53.342;-1.534;2023-11-21T03:22:27;99202.74;;;9.85;70.40
56689;BME280;42565;53.342;-1.534;2023-11-21T03:24:54;99204.59;;;9.61;70.72
56689;BME280;42565;53.342;-1.534;2023-11-21T03:27:20;99203.46;;;9.81;70.50
56689;BME280;42565;53.342;-1.534;2023-11-21T03:29:48;99201.58;;;9.41;71.02
56689;BME280;42565;53.342;-1.534;2023-11-21T03:32:15;99200.76;;;9.39;70.73
56689;BME280;42565;53.342;-1.534;2023-11-21T03:34:53;99204.15;;;9.99;70.61
56689;BME280;42565;53.342;-1.534;2023-11-21T03:37:21;99199.00;;;9.31;71.55
56689;BME280;42565;53.342;-1.534;2023-11-21T03:39:48;99205.88;;;9.39;71.32
56689;BME280;42565;53.342;-1.534;2023-11-21T03:42:14;99206.06;;;9.18;72.18
56689;BME280;42565;53.342;-1.534;2023-11-21T03:44:42;99214.52;;;9.27;71.82
56689;BME280;42565;53.342;-1.534;2023-11-21T03:47:09;99223.27;;;9.46;73.10
56689;BME280;42565;53.342;-1.534;2023-11-21T03:49:35;99230.12;;;9.55;72.89
56689;BME280;42565;53.342;-1.534;2023-11-21T03:52:02;99237.94;;;9.10;74.38
56689;BME280;42565;53.342;-1.534;2023-11-21T03:54:30;99246.29;;;8.91;73.33
56689;BME280;42565;53.342;-1.534;2023-11-21T03:56:57;99252.80;;;9.60;73.12
56689;BME280;42565;53.342;-1.534;2023-11-21T03:59:24;99258.77;;;9.58;73.31
56689;BME280;42565;53.342;-1.534;2023-11-21T04:01:51;99266.58;;;9.18;74.06
56689;BME280;42565;53.342;-1.534;2023-11-21T04:04:17;99270.07;;;9.08;73.96
56689;BME280;42565;53.342;-1.534;2023-11-21T04:06:44;99277.91;;;9.09;73.41
56689;BME280;42565;53.342;-1.534;2023-11-21T04:09:11;99279.61;;;9.68;72.83
56689;BME280;42565;53.342;-1.534;2023-11-21T04:11:37;99290.12;;;9.30;72.45
56689;BME280;42565;53.342;-1.534;2023-11-21T04:14:04;99294.28;;;9.69;72.89
56689;BME280;42565;53.342;-1.534;2023-11-21T04:16:31;99296.55;;;9.34;73.13
56689;BME280;42565;53.342;-1.534;2023-11-21T04:18:58;99282.30;;;9.55;73.82
56689;BME280;42565;53.342;-1.534;2023-11-21T04:21:25;99288.82;;;9.47;74.67
56689;BME280;42565;53.342;-1.534;2023-11-21T04:23:53;99304.79;;;9.04;74.90
56689;BME280;42565;53.342;-1.534;2023-11-21T04:26:19;99314.27;;;9.47;74.19
56689;BME280;42565;53.342;-1.534;2023-11-21T04:28:46;99314.72;;;9.30;74.63
56689;BME280;42565;53.342;-1.534;2023-11-21T04:31:13;99314.11;;;9.78;73.56
56689;BME280;42565;53.342;-1.534;2023-11-21T04:33:39;99317.75;;;9.67;74.70
56689;BME280;42565;53.342;-1.534;2023-11-21T04:36:07;99324.64;;;9.46;75.65
56689;BME280;42565;53.342;-1.534;2023-11-21T04:38:33;99331.97;;;9.78;75.52
56689;BME280;42565;53.342;-1.534;2023-11-21T04:41:00;99335.43;;;9.76;75.48
56689;BME280;42565;53.342;-1.534;2023-11-21T04:43:27;99337.18;;;9.61;76.07
56689;BME280;42565;53.342;-1.534;2023-11-21T04:45:54;99341.92;;;10.01;75.38
56689;BME280;42565;53.342;-1.534;2023-11-21T04:48:22;99340.44;;;9.33;76.53
56689;BME280;42565;53.342;-1.534;2023-11-21T04:50:49;99347.90;;;9.63;76.91
56689;BME280;42565;53.342;-1.534;2023-11-21T04:53:15;99344.82;;;10.00;77.17
56689;BME280;42565;53.342;-1.534;2023-11-21T04:55:42;99350.04;;;9.70;78.78
56689;BME280;42565;53.342;-1.534;2023-11-21T04:58:10;99352.11;;;9.47;80.03
56689;BME280;42565;53.342;-1.534;2023-11-21T05:00:36;99353.15;;;9.31;78.91
56689;BME280;42565;53.342;-1.534;2023-11-21T05:03:04;99351.88;;;9.41;78.67
56689;BME280;42565;53.342;-1.534;2023-11-21T05:05:30;99355.04;;;9.31;79.16
56689;BME280;42565;53.342;-1.534;2023-11-21T05:07:57;99353.76;;;9.31;80.01
56689;BME280;42565;53.342;-1.534;2023-11-21T05:10:24;99356.71;;;8.91;81.61
56689;BME280;42565;53.342;-1.534;2023-11-21T05:12:51;99352.87;;;9.80;80.16
56689;BME280;42565;53.342;-1.534;2023-11-21T05:15:18;99352.06;;;8.95;81.09
56689;BME280;42565;53.342;-1.534;2023-11-21T05:17:46;99351.83;;;9.04;81.44
56689;BME280;42565;53.342;-1.534;2023-11-21T05:20:14;99355.40;;;9.32;81.25
56689;BME280;42565;53.342;-1.534;2023-11-21T05:22:41;99356.74;;;8.97;83.23
56689;BME280;42565;53.342;-1.534;2023-11-21T05:25:09;99360.14;;;8.56;85.73
56689;BME280;42565;53.342;-1.534;2023-11-21T05:27:36;99357.38;;;8.82;84.61
56689;BME280;42565;53.342;-1.534;2023-11-21T05:30:03;99355.78;;;9.02;83.60
56689;BME280;42565;53.342;-1.534;2023-11-21T05:32:31;99368.64;;;8.99;84.56
56689;BME280;42565;53.342;-1.534;2023-11-21T05:34:59;99378.79;;;8.48;85.96
56689;BME280;42565;53.342;-1.534;2023-11-21T05:37:25;99387.40;;;9.02;84.40
56689;BME280;42565;53.342;-1.534;2023-11-21T05:39:52;99394.81;;;8.71;85.14
56689;BME280;42565;53.342;-1.534;2023-11-21T05:42:19;99402.53;;;9.26;83.80
56689;BME280;42565;53.342;-1.534;2023-11-21T05:44:46;99405.68;;;9.16;83.63
56689;BME280;42565;53.342;-1.534;2023-11-21T05:47:13;99411.55;;;9.24;83.67
56689;BME280;42565;53.342;-1.534;2023-11-21T05:49:40;99419.05;;;8.84;84.56
56689;BME280;42565;53.342;-1.534;2023-11-21T05:52:06;99419.72;;;9.21;83.98
56689;BME280;42565;53.342;-1.534;2023-11-21T05:54:33;99435.92;;;9.49;82.93
56689;BME280;42565;53.342;-1.534;2023-11-21T05:57:00;99433.29;;;9.39;82.32
56689;BME280;42565;53.342;-1.534;2023-11-21T05:59:27;99434.13;;;9.44;83.11
56689;BME280;42565;53.342;-1.534;2023-11-21T06:01:54;99448.99;;;9.27;82.60
56689;BME280;42565;53.342;-1.534;2023-11-21T06:04:20;99451.47;;;9.39;82.29
56689;BME280;42565;53.342;-1.534;2023-11-21T06:06:47;99452.46;;;9.67;82.13
56689;BME280;42565;53.342;-1.534;2023-11-21T06:09:14;99457.16;;;8.73;84.33
56689;BME280;42565;53.342;-1.534;2023-11-21T06:11:42;99458.48;;;8.38;86.26
56689;BME280;42565;53.342;-1.534;2023-11-21T06:14:09;99462.83;;;8.66;86.76
56689;BME280;42565;53.342;-1.534;2023-11-21T06:16:36;99473.37;;;9.14;85.14
56689;BME280;42565;53.342;-1.534;2023-11-21T06:19:02;99485.24;;;8.73;86.71
56689;BME280;42565;53.342;-1.534;2023-11-21T06:21:30;99483.32;;;8.99;85.35
56689;BME280;42565;53.342;-1.534;2023-11-21T06:23:57;99485.54;;;8.74;85.51
56689;BME280;42565;53.342;-1.534;2023-11-21T06:26:23;99498.92;;;9.10;84.41
56689;BME280;42565;53.342;-1.534;2023-11-21T06:28:50;99499.92;;;9.00;84.55
56689;BME280;42565;53.342;-1.534;2023-11-21T06:31:17;99497.97;;;8.74;84.99
56689;BME280;42565;53.342;-1.534;2023-11-21T06:33:43;99508.37;;;8.49;86.12
56689;BME280;42565;53.342;-1.534;2023-11-21T06:36:10;99512.27;;;8.72;85.53
56689;BME280;42565;53.342;-1.534;2023-11-21T06:38:38;99520.10;;;8.98;85.77
56689;BME280;42565;53.342;-1.534;2023-11-21T06:41:06;99524.38;;;8.41;86.36
56689;BME280;42565;53.342;-1.534;2023-11-21T06:43:33;99530.12;;;8.34;87.01
56689;BME280;42565;53.342;-1.534;2023-11-21T06:45:59;99534.65;;;8.49;88.38
56689;BME280;42565;53.342;-1.534;2023-11-21T06:48:26;99541.83;;;8.79;86.33
56689;BME280;42565;53.342;-1.534;2023-11-21T06:50:53;99551.01;;;8.36;87.99
56689;BME280;42565;53.342;-1.534;2023-11-21T06:53:20;99555.73;;;8.42;87.66
56689;BME280;42565;53.342;-1.534;2023-11-21T06:55:46;99566.94;;;8.30;88.34
56689;BME280;42565;53.342;-1.534;2023-11-21T06:58:13;99568.29;;;8.03;88.18
56689;BME280;42565;53.342;-1.534;2023-11-21T07:00:40;99580.71;;;8.87;86.74
56689;BME280;42565;53.342;-1.534;2023-11-21T07:03:06;99579.68;;;8.23;87.85
56689;BME280;42565;53.342;-1.534;2023-11-21T07:05:33;99589.99;;;8.47;88.40
56689;BME280;42565;53.342;-1.534;2023-11-21T07:08:00;99591.13;;;8.75;85.80
56689;BME280;42565;53.342;-1.534;2023-11-21T07:10:26;99591.90;;;8.51;87.69
56689;BME280;42565;53.342;-1.534;2023-11-21T07:12:53;99597.48;;;8.59;86.96
56689;BME280;42565;53.342;-1.534;2023-11-21T07:15:20;99611.02;;;7.74;91.34
56689;BME280;42565;53.342;-1.534;2023-11-21T07:17:47;99618.65;;;8.11;88.89
56689;BME280;42565;53.342;-1.534;2023-11-21T07:20:14;99622.84;;;7.48;92.82
56689;BME280;42565;53.342;-1.534;2023-11-21T07:22:41;99638.69;;;8.14;90.14
56689;BME280;42565;53.342;-1.534;2023-11-21T07:25:08;99644.36;;;8.48;88.20
56689;BME280;42565;53.342;-1.534;2023-11-21T07:27:35;99646.68;;;8.43;88.06
56689;BME280;42565;53.342;-1.534;2023-11-21T07:30:02;99650.44;;;7.90;89.67
56689;BME280;42565;53.342;-1.534;2023-11-21T07:32:29;99645.79;;;8.04;90.54
56689;BME280;42565;53.342;-1.534;2023-11-21T07:34:56;99648.40;;;7.84;91.17
56689;BME280;42565;53.342;-1.534;2023-11-21T07:37:23;99651.66;;;7.36;93.80
56689;BME280;42565;53.342;-1.534;2023-11-21T07:39:49;99657.66;;;8.12;90.61
56689;BME280;42565;53.342;-1.534;2023-11-21T07:42:16;99653.56;;;7.90;92.12
56689;BME280;42565;53.342;-1.534;2023-11-21T07:44:43;99669.07;;;7.96;89.72
56689;BME280;42565;53.342;-1.534;2023-11-21T07:47:10;99677.64;;;8.35;87.78
56689;BME280;42565;53.342;-1.534;2023-11-21T07:49:37;99677.44;;;7.86;89.37
56689;BME280;42565;53.342;-1.534;2023-11-21T07:52:04;99680.95;;;8.19;88.30
56689;BME280;42565;53.342;-1.534;2023-11-21T07:54:32;99681.66;;;7.91;89.65
56689;BME280;42565;53.342;-1.534;2023-11-21T07:56:59;99680.60;;;8.23;88.94
56689;BME280;42565;53.342;-1.534;2023-11-21T07:59:26;99683.73;;;8.32;87.44
56689;BME280;42565;53.342;-1.534;2023-11-21T08:01:53;99693.43;;;8.15;88.14
56689;BME280;42565;53.342;-1.534;2023-11-21T08:04:19;99695.60;;;7.55;91.06
56689;BME280;42565;53.342;-1.534;2023-11-21T08:06:46;99692.46;;;7.23;92.96
56689;BME280;42565;53.342;-1.534;2023-11-21T08:09:13;99694.63;;;7.01;96.02
56689;BME280;42565;53.342;-1.534;2023-11-21T08:11:39;99702.21;;;7.53;92.97
56689;BME280;42565;53.342;-1.534;2023-11-21T08:14:06;99708.24;;;7.05;95.00
56689;BME280;42565;53.342;-1.534;2023-11-21T08:16:33;99712.96;;;6.95;94.02
56689;BME280;42565;53.342;-1.534;2023-11-21T08:18:59;99726.51;;;7.24;93.60
56689;BME280;42565;53.342;-1.534;2023-11-21T08:21:26;99727.78;;;7.14;93.43
56689;BME280;42565;53.342;-1.534;2023-11-21T08:23:53;99734.66;;;7.69;91.68
56689;BME280;42565;53.342;-1.534;2023-11-21T08:26:20;99734.34;;;7.66;91.72
56689;BME280;42565;53.342;-1.534;2023-11-21T08:28:46;99735.36;;;7.41;91.65
56689;BME280;42565;53.342;-1.534;2023-11-21T08:31:14;99738.57;;;7.33;92.22
56689;BME280;42565;53.342;-1.534;2023-11-21T08:33:42;99745.27;;;7.39;92.65
56689;BME280;42565;53.342;-1.534;2023-11-21T08:36:10;99749.79;;;7.27;92.05
56689;BME280;42565;53.342;-1.534;2023-11-21T08:38:37;99755.70;;;6.23;95.31
56689;BME280;42565;53.342;-1.534;2023-11-21T08:41:05;99757.19;;;6.83;94.02
56689;BME280;42565;53.342;-1.534;2023-11-21T08:43:33;99772.32;;;7.26;92.35
56689;BME280;42565;53.342;-1.534;2023-11-21T08:46:00;99768.77;;;6.85;92.46
56689;BME280;42565;53.342;-1.534;2023-11-21T08:48:27;99773.14;;;7.09;91.54
56689;BME280;42565;53.342;-1.534;2023-11-21T08:50:55;99780.65;;;7.15;91.81
56689;BME280;42565;53.342;-1.534;2023-11-21T08:53:22;99786.28;;;7.59;90.19
56689;BME280;42565;53.342;-1.534;2023-11-21T08:55:49;99790.36;;;7.61;89.97
56689;BME280;42565;53.342;-1.534;2023-11-21T08:58:16;99793.25;;;7.88;89.74
56689;BME280;42565;53.342;-1.534;2023-11-21T09:00:43;99800.26;;;7.80;88.88
56689;BME280;42565;53.342;-1.534;2023-11-21T09:03:11;99795.36;;;7.03;90.65
56689;BME280;42565;53.342;-1.534;2023-11-21T09:05:38;99805.31;;;8.44;86.80
56689;BME280;42565;53.342;-1.534;2023-11-21T09:08:05;99815.66;;;7.92;88.63
56689;BME280;42565;53.342;-1.534;2023-11-21T09:10:33;99823.28;;;7.40;90.48
56689;BME280;42565;53.342;-1.534;2023-11-21T09:13:01;99815.33;;;7.34;90.11
56689;BME280;42565;53.342;-1.534;2023-11-21T09:15:29;99817.06;;;8.00;88.82
56689;BME280;42565;53.342;-1.534;2023-11-21T09:17:55;99824.36;;;7.95;88.61
56689;BME280;42565;53.342;-1.534;2023-11-21T09:20:22;99833.78;;;7.99;87.37
56689;BME280;42565;53.342;-1.534;2023-11-21T09:22:49;99829.94;;;8.28;86.04
56689;BME280;42565;53.342;-1.534;2023-11-21T09:25:15;99838.14;;;7.89;87.06
56689;BME280;42565;53.342;-1.534;2023-11-21T09:27:43;99843.24;;;7.80;87.42
56689;BME280;42565;53.342;-1.534;2023-11-21T09:30:10;99847.36;;;7.98;87.97
56689;BME280;42565;53.342;-1.534;2023-11-21T09:32:38;99853.90;;;7.93;87.60
56689;BME280;42565;53.342;-1.534;2023-11-21T09:35:06;99863.18;;;7.92;89.21
56689;BME280;42565;53.342;-1.534;2023-11-21T09:37:33;99874.72;;;7.25;90.14
56689;BME280;42565;53.342;-1.534;2023-11-21T09:40:00;99874.95;;;7.83;86.92
56689;BME280;42565;53.342;-1.534;2023-11-21T09:42:31;99878.49;;;7.82;87.78
56689;BME280;42565;53.342;-1.534;2023-11-21T09:45:08;99882.43;;;7.59;86.39
56689;BME280;42565;53.342;-1.534;2023-11-21T09:47:39;99886.48;;;8.78;84.05
56689;BME280;42565;53.342;-1.534;2023-11-21T09:50:06;99892.92;;;9.27;82.21
56689;BME280;42565;53.342;-1.534;2023-11-21T09:52:39;99891.98;;;9.01;81.23
56689;BME280;42565;53.342;-1.534;2023-11-21T09:55:11;99905.45;;;9.13;79.29
56689;BME280;42565;53.342;-1.534;2023-11-21T09:57:39;99903.28;;;8.99;77.51
56689;BME280;42565;53.342;-1.534;2023-11-21T10:00:08;99913.32;;;9.16;76.82
56689;BME280;42565;53.342;-1.534;2023-11-21T10:02:35;99919.01;;;8.64;80.46
56689;BME280;42565;53.342;-1.534;2023-11-21T10:05:03;99916.64;;;8.67;78.88
56689;BME280;42565;53.342;-1.534;2023-11-21T10:07:31;99917.17;;;9.22;77.65
56689;BME280;42565;53.342;-1.534;2023-11-21T10:10:02;99919.97;;;8.69;80.65
56689;BME280;42565;53.342;-1.534;2023-11-21T10:12:29;99926.74;;;8.82;79.45
56689;BME280;42565;53.342;-1.534;2023-11-21T10:14:59;99928.34;;;8.76;79.80
56689;BME280;42565;53.342;-1.534;2023-11-21T10:17:28;99934.24;;;8.45;79.13
56689;BME280;42565;53.342;-1.534;2023-11-21T10:19:58;99938.23;;;8.03;80.30
56689;BME280;42565;53.342;-1.534;2023-11-21T10:22:26;99944.51;;;8.13;82.04
56689;BME280;42565;53.342;-1.534;2023-11-21T10:24:53;99941.54;;;8.65;79.00
56689;BME280;42565;53.342;-1.534;2023-11-21T10:27:21;99946.79;;;9.07;77.98
56689;BME280;42565;53.342;-1.534;2023-11-21T10:29:51;99953.79;;;8.76;78.34
56689;BME280;42565;53.342;-1.534;2023-11-21T10:32:19;99952.00;;;9.16;76.77
56689;BME280;42565;53.342;-1.534;2023-11-21T10:34:56;99957.60;;;9.21;76.44
56689;BME280;42565;53.342;-1.534;2023-11-21T10:37:23;99965.90;;;9.46;74.81
56689;BME280;42565;53.342;-1.534;2023-11-21T10:39:51;99972.77;;;9.35;75.59
56689;BME280;42565;53.342;-1.534;2023-11-21T10:42:18;99976.60;;;9.18;76.17
56689;BME280;42565;53.342;-1.534;2023-11-21T10:44:46;99980.60;;;9.29;76.00
56689;BME280;42565;53.342;-1.534;2023-11-21T10:47:13;99986.53;;;9.71;75.07
56689;BME280;42565;53.342;-1.534;2023-11-21T10:49:41;99980.14;;;9.34;75.47
56689;BME280;42565;53.342;-1.534;2023-11-21T10:52:09;99975.86;;;9.68;74.24
56689;BME280;42565;53.342;-1.534;2023-11-21T10:54:37;99984.89;;;9.55;73.17
56689;BME280;42565;53.342;-1.534;2023-11-21T10:57:04;99983.59;;;9.29;73.66
56689;BME280;42565;53.342;-1.534;2023-11-21T10:59:32;99987.81;;;9.08;75.50
56689;BME280;42565;53.342;-1.534;2023-11-21T11:01:59;99993.24;;;9.71;72.31
56689;BME280;42565;53.342;-1.534;2023-11-21T11:04:27;100000.68;;;9.24;73.41
56689;BME280;42565;53.342;-1.534;2023-11-21T11:06:57;99998.98;;;9.88;73.75
56689;BME280;42565;53.342;-1.534;2023-11-21T11:09:27;100002.79;;;10.21;72.35
56689;BME280;42565;53.342;-1.534;2023-11-21T11:11:53;100002.02;;;9.88;71.72
56689;BME280;42565;53.342;-1.534;2023-11-21T11:14:21;100002.04;;;10.92;70.14
56689;BME280;42565;53.342;-1.534;2023-11-21T11:16:49;100003.42;;;10.28;67.74
56689;BME280;42565;53.342;-1.534;2023-11-21T11:19:17;99998.40;;;10.79;68.81
56689;BME280;42565;53.342;-1.534;2023-11-21T11:21:52;100002.82;;;10.70;67.86
56689;BME280;42565;53.342;-1.534;2023-11-21T11:24:36;100001.49;;;9.91;67.71
56689;BME280;42565;53.342;-1.534;2023-11-21T11:27:14;99997.37;;;10.35;69.06
56689;BME280;42565;53.342;-1.534;2023-11-21T11:29:52;99989.24;;;10.31;67.97
56689;BME280;42565;53.342;-1.534;2023-11-21T11:32:27;99986.99;;;10.49;68.11
56689;BME280;42565;53.342;-1.534;2023-11-21T11:35:06;99994.95;;;10.55;66.72
56689;BME280;42565;53.342;-1.534;2023-11-21T11:37:34;99993.70;;;9.64;67.93
56689;BME280;42565;53.342;-1.534;2023-11-21T11:40:01;100004.23;;;10.03;67.02
56689;BME280;42565;53.342;-1.534;2023-11-21T11:42:32;100013.04;;;9.93;66.41
56689;BME280;42565;53.342;-1.534;2023-11-21T11:44:59;100019.47;;;9.97;65.45
56689;BME280;42565;53.342;-1.534;2023-11-21T11:47:28;100027.31;;;10.39;63.99
56689;BME280;42565;53.342;-1.534;2023-11-21T11:50:03;100027.55;;;10.05;65.24
56689;BME280;42565;53.342;-1.534;2023-11-21T11:52:40;100030.30;;;10.24;64.84
56689;BME280;42565;53.342;-1.534;2023-11-21T11:55:10;100027.55;;;10.55;63.20
56689;BME280;42565;53.342;-1.534;2023-11-21T11:57:37;100029.59;;;10.55;63.68
56689;BME280;42565;53.342;-1.534;2023-11-21T12:00:17;100024.16;;;10.31;63.92
56689;BME280;42565;53.342;-1.534;2023-11-21T12:02:46;100017.44;;;9.84;64.98
56689;BME280;42565;53.342;-1.534;2023-11-21T12:05:15;100014.67;;;10.40;63.17
56689;BME280;42565;53.342;-1.534;2023-11-21T12:07:44;100010.12;;;11.00;61.20
56689;BME280;42565;53.342;-1.534;2023-11-21T12:10:14;100015.86;;;10.53;63.25
56689;BME280;42565;53.342;-1.534;2023-11-21T12:12:43;100020.66;;;11.46;60.17
56689;BME280;42565;53.342;-1.534;2023-11-21T12:15:11;100022.65;;;11.67;57.52
56689;BME280;42565;53.342;-1.534;2023-11-21T12:17:38;100024.84;;;11.54;59.81
56689;BME280;42565;53.342;-1.534;2023-11-21T12:20:07;100021.77;;;11.68;56.84
56689;BME280;42565;53.342;-1.534;2023-11-21T12:22:34;100014.66;;;12.07;57.13
56689;BME280;42565;53.342;-1.534;2023-11-21T12:25:02;100013.66;;;11.85;55.32
56689;BME280;42565;53.342;-1.534;2023-11-21T12:27:29;100021.43;;;11.88;56.69
56689;BME280;42565;53.342;-1.534;2023-11-21T12:29:57;100019.95;;;12.33;54.01
56689;BME280;42565;53.342;-1.534;2023-11-21T12:32:23;100016.72;;;12.84;52.67
56689;BME280;42565;53.342;-1.534;2023-11-21T12:34:51;100017.22;;;12.44;53.46
56689;BME280;42565;53.342;-1.534;2023-11-21T12:37:18;100021.14;;;13.02;51.94
56689;BME280;42565;53.342;-1.534;2023-11-21T12:39:46;100019.32;;;12.74;52.16
56689;BME280;42565;53.342;-1.534;2023-11-21T12:42:13;100014.95;;;13.02;51.92
56689;BME280;42565;53.342;-1.534;2023-11-21T12:44:41;100021.57;;;13.20;50.39
56689;BME280;42565;53.342;-1.534;2023-11-21T12:47:09;100029.65;;;12.35;53.11
56689;BME280;42565;53.342;-1.534;2023-11-21T12:49:36;100033.10;;;12.59;52.81
56689;BME280;42565;53.342;-1.534;2023-11-21T12:52:04;100025.65;;;13.05;52.45
56689;BME280;42565;53.342;-1.534;2023-11-21T12:54:34;100027.30;;;13.16;51.14
56689;BME280;42565;53.342;-1.534;2023-11-21T12:57:00;100033.95;;;12.74;54.28
56689;BME280;42565;53.342;-1.534;2023-11-21T12:59:28;100033.65;;;12.53;54.55